Time;durP1;ratioP1;P1;durP2;ratioP2;P2;SDS_P1;SDS_P2;PMS_P1;PMS_P2;Temp;Humidity;BMP_temperature;BMP_pressure;BME280_temperature;BME280_humidity;BME280_pressure;Samples;Min_cycle;Max_cycle;Signal;HPM_P1;HPM_P2
2022/06/07 00:00:15;;;;;;;13.43;7.15;;;;;;;;;;5038282;28;20041;-56
2022/06/07 00:02:41;;;;;;;15.40;9.23;;;;;;;;;;5034257;28;20041;-56
2022/06/07 00:05:07;;;;;;;15.57;7.95;;;;;;;;;;5034860;28;20076;-57
2022/06/07 00:07:33;;;;;;;13.98;8.70;;;;;;;;;;5034010;28;20501;-56
2022/06/07 00:09:59;;;;;;;17.58;8.65;;;;;;;;;;5035722;28;20088;-56
2022/06/07 00:12:26;;;;;;;18.27;9.15;;;;;;;;;;5033009;28;20139;-57
2022/06/07 00:14:53;;;;;;;14.27;8.95;;;;;;;;;;5039728;28;20045;-57
2022/06/07 00:17:19;;;;;;;10.85;8.45;;;;;;;;;;5035308;28;20172;-57
2022/06/07 00:19:47;;;;;;;14.05;7.60;;;;;;;;;;5037586;28;20052;-56
2022/06/07 00:22:13;;;;;;;14.02;8.30;;;;;;;;;;5054931;28;20087;-56
2022/06/07 00:24:40;;;;;;;14.13;7.05;;;;;;;;;;5040819;28;20052;-57
2022/06/07 00:27:06;;;;;;;15.40;8.00;;;;;;;;;;5035039;28;20489;-56
2022/06/07 00:29:32;;;;;;;15.48;7.68;;;;;;;;;;5035187;28;20041;-56
2022/06/07 00:32:00;;;;;;;14.07;7.47;;;;;;;;;;5034422;28;20475;-57
2022/06/07 00:34:26;;;;;;;13.50;7.82;;;;;;;;;;5038612;28;20076;-56
2022/06/07 00:36:52;;;;;;;14.10;7.30;;;;;;;;;;5054697;28;20052;-57
2022/06/07 00:39:18;;;;;;;10.68;6.75;;;;;;;;;;5037467;28;20053;-57
2022/06/07 00:41:44;;;;;;;11.90;8.30;;;;;;;;;;5034999;28;20057;-56
2022/06/07 00:44:22;;;;;;;16.30;7.47;;;;;;;;;;5034286;28;20124;-57
2022/06/07 00:46:49;;;;;;;11.23;7.50;;;;;;;;;;5033386;28;20123;-57
2022/06/07 00:49:17;;;;;;;11.30;6.15;;;;;;;;;;5048287;28;20045;-57
2022/06/07 00:51:46;;;;;;;10.02;6.18;;;;;;;;;;5034642;28;20045;-57
2022/06/07 00:54:19;;;;;;;12.82;7.68;;;;;;;;;;5034290;28;20107;-57
2022/06/07 00:56:45;;;;;;;13.60;8.25;;;;;;;;;;5032760;28;20401;-57
2022/06/07 00:59:11;;;;;;;14.20;8.00;;;;;;;;;;5034501;28;20045;-56
2022/06/07 01:01:37;;;;;;;12.90;7.50;;;;;;;;;;5034095;28;20132;-56
2022/06/07 01:04:03;;;;;;;16.13;8.40;;;;;;;;;;5037432;28;20076;-56
2022/06/07 01:11:59;;;;;;;14.98;8.68;;;;;;;;;;5032958;28;20049;-57
2022/06/07 01:14:25;;;;;;;10.63;6.85;;;;;;;;;;5032904;28;20132;-56
2022/06/07 01:16:51;;;;;;;14.65;7.63;;;;;;;;;;5033588;28;20129;-57
2022/06/07 01:19:17;;;;;;;13.55;7.68;;;;;;;;;;5034096;28;20045;-57
2022/06/07 01:21:45;;;;;;;19.55;8.38;;;;;;;;;;5034228;28;20099;-56
2022/06/07 01:24:13;;;;;;;17.88;9.27;;;;;;;;;;5032515;28;20056;-57
2022/06/07 01:26:39;;;;;;;12.82;8.18;;;;;;;;;;5031599;28;20045;-56
2022/06/07 01:29:05;;;;;;;16.08;8.93;;;;;;;;;;5033807;28;20099;-57
2022/06/07 01:31:31;;;;;;;13.10;7.75;;;;;;;;;;5032021;28;20041;-56
2022/06/07 01:33:57;;;;;;;15.45;8.70;;;;;;;;;;5033443;28;20064;-56
2022/06/07 01:36:23;;;;;;;16.95;9.95;;;;;;;;;;5033431;28;20080;-56
2022/06/07 01:41:53;;;;;;;23.23;10.35;;;;;;;;;;5033626;28;20085;-56
2022/06/07 01:41:54;;;;;;;12.05;6.45;;;;;;;;;;5033986;28;20108;-56
2022/06/07 01:44:20;;;;;;;10.93;7.90;;;;;;;;;;5033531;28;20048;-56
2022/06/07 01:46:46;;;;;;;16.30;8.85;;;;;;;;;;5031498;28;20383;-56
2022/06/07 01:49:12;;;;;;;12.88;8.13;;;;;;;;;;5037028;28;20048;-56
2022/06/07 01:51:38;;;;;;;12.20;8.73;;;;;;;;;;5036374;28;20091;-57
2022/06/07 01:54:05;;;;;;;15.60;7.22;;;;;;;;;;5033261;28;20405;-56
2022/06/07 01:56:31;;;;;;;17.23;6.53;;;;;;;;;;5037679;28;20057;-56
2022/06/07 01:58:57;;;;;;;14.50;7.25;;;;;;;;;;5067754;28;20052;-56
2022/06/07 02:01:23;;;;;;;17.25;9.82;;;;;;;;;;5056111;28;20049;-56
2022/06/07 02:03:50;;;;;;;16.08;9.40;;;;;;;;;;5052791;28;20079;-56
2022/06/07 02:06:16;;;;;;;15.73;9.63;;;;;;;;;;5035209;28;20060;-56
2022/06/07 02:08:42;;;;;;;15.77;8.32;;;;;;;;;;5053142;28;20044;-56
2022/06/07 02:11:10;;;;;;;14.05;8.27;;;;;;;;;;5035023;28;20089;-57
2022/06/07 02:13:36;;;;;;;13.90;7.07;;;;;;;;;;5060646;28;20044;-57
2022/06/07 02:16:02;;;;;;;13.18;7.32;;;;;;;;;;5052744;28;20049;-57
2022/06/07 02:18:28;;;;;;;12.70;8.15;;;;;;;;;;5053219;28;20146;-56
2022/06/07 02:20:59;;;;;;;13.48;7.53;;;;;;;;;;5052290;28;20040;-56
2022/06/07 02:23:25;;;;;;;17.20;8.27;;;;;;;;;;5051449;28;20540;-57
2022/06/07 02:26:00;;;;;;;17.25;8.30;;;;;;;;;;5093212;22;20052;-57
2022/06/07 02:28:27;;;;;;;17.27;8.82;;;;;;;;;;5064936;28;20053;-56
2022/06/07 02:30:54;;;;;;;13.52;8.13;;;;;;;;;;5072585;28;20056;-57
2022/06/07 02:33:20;;;;;;;17.00;8.43;;;;;;;;;;5045338;28;20044;-56
2022/06/07 02:35:46;;;;;;;14.60;8.38;;;;;;;;;;5052212;28;20053;-56
2022/06/07 02:38:12;;;;;;;17.85;9.77;;;;;;;;;;5052279;28;20052;-57
2022/06/07 02:40:38;;;;;;;15.93;8.52;;;;;;;;;;5052399;28;20136;-56
2022/06/07 02:43:05;;;;;;;14.90;8.40;;;;;;;;;;5066126;28;20076;-56
2022/06/07 02:45:31;;;;;;;18.35;10.13;;;;;;;;;;5093030;22;20068;-56
2022/06/07 02:47:57;;;;;;;17.80;9.20;;;;;;;;;;5073378;28;20052;-56
2022/06/07 02:50:23;;;;;;;18.13;9.52;;;;;;;;;;5091590;28;20050;-57
2022/06/07 02:52:50;;;;;;;15.45;7.90;;;;;;;;;;5092676;28;20520;-56
2022/06/07 02:55:16;;;;;;;12.93;7.80;;;;;;;;;;5092170;28;20539;-56
2022/06/07 02:57:42;;;;;;;17.88;9.27;;;;;;;;;;5079049;28;20501;-56
2022/06/07 03:00:09;;;;;;;10.85;7.18;;;;;;;;;;5082623;28;20044;-55
2022/06/07 03:02:36;;;;;;;16.48;9.13;;;;;;;;;;5072224;28;20052;-55
2022/06/07 03:05:02;;;;;;;12.57;7.78;;;;;;;;;;5070973;28;20500;-55
2022/06/07 03:07:28;;;;;;;14.02;9.02;;;;;;;;;;5072172;28;20044;-56
2022/06/07 03:09:54;;;;;;;16.60;8.40;;;;;;;;;;5076865;28;20056;-55
2022/06/07 03:12:20;;;;;;;11.90;7.13;;;;;;;;;;5070975;28;20507;-55
2022/06/07 03:14:47;;;;;;;16.92;10.15;;;;;;;;;;5080629;28;20097;-56
2022/06/07 03:17:13;;;;;;;18.58;9.98;;;;;;;;;;5082143;28;20055;-56
2022/06/07 03:19:39;;;;;;;17.27;8.90;;;;;;;;;;5071880;28;20036;-57
2022/06/07 03:22:07;;;;;;;17.63;8.75;;;;;;;;;;5071145;28;20099;-57
2022/06/07 03:24:34;;;;;;;17.67;9.55;;;;;;;;;;5079705;28;20047;-56
2022/06/07 03:27:00;;;;;;;14.50;8.85;;;;;;;;;;5088041;28;20070;-56
2022/06/07 03:29:26;;;;;;;16.58;8.68;;;;;;;;;;5082603;28;20052;-57
2022/06/07 03:31:52;;;;;;;13.95;8.70;;;;;;;;;;5071871;28;20062;-57
2022/06/07 03:34:19;;;;;;;18.20;8.60;;;;;;;;;;5070607;28;20120;-57
2022/06/07 03:36:45;;;;;;;17.23;9.60;;;;;;;;;;5075601;28;20084;-56
2022/06/07 03:39:11;;;;;;;18.17;9.63;;;;;;;;;;5058817;28;20554;-58
2022/06/07 03:41:38;;;;;;;16.13;9.73;;;;;;;;;;5074904;28;20124;-57
2022/06/07 03:44:04;;;;;;;17.77;10.63;;;;;;;;;;5089604;28;20510;-56
2022/06/07 03:46:32;;;;;;;15.55;8.80;;;;;;;;;;5096098;28;20062;-56
2022/06/07 03:48:59;;;;;;;17.45;10.18;;;;;;;;;;5076030;28;20037;-56
2022/06/07 03:51:26;;;;;;;20.25;10.57;;;;;;;;;;5074954;28;20581;-56
2022/06/07 03:53:52;;;;;;;20.58;11.13;;;;;;;;;;5078404;28;20044;-57
2022/06/07 03:56:21;;;;;;;15.55;10.38;;;;;;;;;;5093469;28;20072;-57
2022/06/07 03:58:48;;;;;;;16.30;9.88;;;;;;;;;;5078421;28;20056;-56
2022/06/07 04:01:15;;;;;;;20.25;12.13;;;;;;;;;;5075220;28;20405;-56
2022/06/07 04:03:42;;;;;;;17.67;11.07;;;;;;;;;;5074109;28;20581;-57
2022/06/07 04:06:15;;;;;;;19.00;11.20;;;;;;;;;;5074381;28;20052;-56
2022/06/07 04:08:41;;;;;;;15.98;9.43;;;;;;;;;;5075379;28;20048;-57
2022/06/07 04:11:10;;;;;;;16.63;11.35;;;;;;;;;;5081089;28;20098;-57
2022/06/07 04:13:36;;;;;;;17.05;8.75;;;;;;;;;;5055559;28;20060;-57
2022/06/07 04:16:06;;;;;;;16.30;9.98;;;;;;;;;;5077801;28;20044;-56
2022/06/07 04:18:32;;;;;;;17.70;10.95;;;;;;;;;;5057504;28;20055;-57
2022/06/07 04:20:59;;;;;;;21.90;10.32;;;;;;;;;;5074863;28;20119;-56
2022/06/07 04:23:25;;;;;;;19.17;10.95;;;;;;;;;;5074823;28;20140;-56
2022/06/07 04:25:52;;;;;;;20.95;10.48;;;;;;;;;;5075021;28;20547;-57
2022/06/07 04:28:18;;;;;;;22.45;12.90;;;;;;;;;;5075161;28;20377;-56
2022/06/07 04:30:45;;;;;;;17.70;7.22;;;;;;;;;;5076333;28;20052;-57
2022/06/07 04:33:11;;;;;;;15.85;9.43;;;;;;;;;;5074849;28;20127;-57
2022/06/07 04:35:37;;;;;;;22.48;12.90;;;;;;;;;;5074839;28;20443;-57
2022/06/07 04:38:03;;;;;;;23.02;13.38;;;;;;;;;;5074495;28;20449;-57
2022/06/07 04:40:29;;;;;;;24.05;13.68;;;;;;;;;;5074263;28;20400;-56
2022/06/07 04:42:55;;;;;;;24.27;14.50;;;;;;;;;;5058021;28;20056;-56
2022/06/07 04:45:22;;;;;;;22.40;14.02;;;;;;;;;;5079616;28;20052;-56
2022/06/07 04:47:48;;;;;;;22.48;13.40;;;;;;;;;;5073163;28;20556;-56
2022/06/07 04:50:16;;;;;;;14.75;9.05;;;;;;;;;;5074387;28;20078;-56
2022/06/07 04:52:43;;;;;;;23.13;12.75;;;;;;;;;;5074319;28;20079;-56
2022/06/07 04:55:09;;;;;;;24.23;12.20;;;;;;;;;;5074482;28;20113;-57
2022/06/07 04:57:35;;;;;;;22.23;11.75;;;;;;;;;;5075646;28;20047;-56
2022/06/07 05:00:01;;;;;;;17.88;10.23;;;;;;;;;;5080190;28;20048;-56
2022/06/07 05:02:27;;;;;;;9.93;5.72;;;;;;;;;;5078216;28;20137;-57
2022/06/07 05:04:53;;;;;;;14.93;7.35;;;;;;;;;;5080570;28;20048;-56
2022/06/07 05:07:19;;;;;;;16.38;7.97;;;;;;;;;;5074176;28;20070;-57
2022/06/07 05:09:47;;;;;;;15.77;7.95;;;;;;;;;;5073531;28;20041;-57
2022/06/07 05:12:13;;;;;;;9.93;6.03;;;;;;;;;;5073930;28;20040;-56
2022/06/07 05:14:39;;;;;;;11.40;5.90;;;;;;;;;;5073007;28;20091;-56
2022/06/07 05:17:05;;;;;;;5.60;3.33;;;;;;;;;;5080178;28;20050;-56
2022/06/07 05:19:33;;;;;;;10.55;5.10;;;;;;;;;;5074081;28;20076;-56
2022/06/07 05:22:00;;;;;;;8.98;4.95;;;;;;;;;;5072434;28;20128;-56
2022/06/07 05:24:27;;;;;;;11.30;4.55;;;;;;;;;;5072612;28;20414;-57
2022/06/07 05:26:58;;;;;;;8.80;4.18;;;;;;;;;;5078636;28;20086;-57
2022/06/07 05:29:35;;;;;;;8.15;4.75;;;;;;;;;;5060187;28;20089;-57
2022/06/07 05:32:01;;;;;;;8.18;4.13;;;;;;;;;;5086547;28;20052;-57
2022/06/07 05:34:27;;;;;;;9.45;5.15;;;;;;;;;;5073645;28;20529;-56
2022/06/07 05:36:54;;;;;;;8.35;5.07;;;;;;;;;;5071048;28;20076;-57
2022/06/07 05:39:24;;;;;;;7.97;3.95;;;;;;;;;;5065744;28;20055;-57
2022/06/07 05:41:50;;;;;;;11.55;3.95;;;;;;;;;;5078316;28;20473;-56
2022/06/07 05:44:16;;;;;;;6.78;4.10;;;;;;;;;;5080068;28;20055;-56
2022/06/07 05:46:42;;;;;;;8.30;3.95;;;;;;;;;;5078274;28;20060;-58
2022/06/07 05:49:09;;;;;;;8.68;5.60;;;;;;;;;;5071947;28;20055;-56
2022/06/07 05:51:35;;;;;;;8.73;4.78;;;;;;;;;;5072519;28;20045;-57
2022/06/07 05:54:01;;;;;;;10.57;3.80;;;;;;;;;;5071125;28;20048;-56
2022/06/07 05:56:27;;;;;;;13.73;5.45;;;;;;;;;;5077754;28;20377;-56
2022/06/07 05:58:53;;;;;;;8.02;3.97;;;;;;;;;;5070678;28;20074;-56
2022/06/07 06:01:19;;;;;;;10.15;5.38;;;;;;;;;;5088250;28;20043;-57
2022/06/07 06:03:45;;;;;;;15.05;6.13;;;;;;;;;;5071989;28;20075;-57
2022/06/07 06:06:12;;;;;;;14.48;5.28;;;;;;;;;;5071703;28;20052;-56
2022/06/07 06:11:35;;;;;;;14.45;5.20;;;;;;;;;;4991193;28;20101;-57
2022/06/07 06:14:01;;;;;;;9.23;4.45;;;;;;;;;;5006140;28;20124;-56
2022/06/07 06:16:27;;;;;;;13.07;5.07;;;;;;;;;;5010398;28;20054;-56
2022/06/07 06:18:54;;;;;;;12.15;4.93;;;;;;;;;;5097278;22;20063;-57
2022/06/07 06:21:22;;;;;;;10.23;4.40;;;;;;;;;;5037265;28;20459;-56
2022/06/07 06:23:48;;;;;;;11.32;4.38;;;;;;;;;;5063785;28;20094;-57
2022/06/07 06:26:15;;;;;;;17.85;4.43;;;;;;;;;;5051870;28;20046;-62
2022/06/07 06:28:44;;;;;;;14.73;5.13;;;;;;;;;;5037426;28;20131;-62
2022/06/07 06:31:11;;;;;;;14.00;5.93;;;;;;;;;;5055569;28;20060;-57
2022/06/07 06:33:41;;;;;;;13.60;5.20;;;;;;;;;;5055278;28;20044;-57
2022/06/07 06:36:08;;;;;;;17.13;4.95;;;;;;;;;;5055001;28;20063;-56
2022/06/07 06:38:35;;;;;;;12.65;5.10;;;;;;;;;;5073159;28;20059;-56
2022/06/07 06:41:11;;;;;;;13.57;4.38;;;;;;;;;;5073513;28;20063;-56
2022/06/07 06:43:37;;;;;;;10.40;4.85;;;;;;;;;;5072934;28;20079;-56
2022/06/07 06:46:04;;;;;;;16.65;5.15;;;;;;;;;;5072913;28;20047;-56
2022/06/07 06:48:30;;;;;;;18.92;5.15;;;;;;;;;;5072605;28;20048;-56
2022/06/07 06:50:59;;;;;;;14.82;5.40;;;;;;;;;;5072922;28;20044;-56
2022/06/07 06:53:26;;;;;;;14.18;5.10;;;;;;;;;;5072601;28;20044;-56
2022/06/07 06:55:54;;;;;;;5.57;3.03;;;;;;;;;;5071880;28;20044;-56
2022/06/07 06:58:20;;;;;;;6.72;3.47;;;;;;;;;;5064965;28;20480;-56
2022/06/07 07:00:47;;;;;;;15.02;4.38;;;;;;;;;;5072745;28;20400;-56
2022/06/07 07:03:14;;;;;;;9.48;3.38;;;;;;;;;;5072256;28;20048;-56
2022/06/07 07:05:40;;;;;;;9.02;4.22;;;;;;;;;;5072522;28;20036;-56
2022/06/07 07:08:06;;;;;;;11.02;4.05;;;;;;;;;;5072514;28;20045;-56
2022/06/07 07:10:32;;;;;;;10.00;3.97;;;;;;;;;;5073165;28;20441;-56
2022/06/07 07:12:58;;;;;;;10.20;3.40;;;;;;;;;;5067290;28;20071;-57
2022/06/07 07:15:24;;;;;;;10.88;4.35;;;;;;;;;;5058259;28;20554;-56
2022/06/07 07:17:50;;;;;;;12.13;3.63;;;;;;;;;;5058298;28;20040;-56
2022/06/07 07:20:16;;;;;;;9.40;3.90;;;;;;;;;;5076203;28;20048;-56
2022/06/07 07:22:42;;;;;;;11.88;4.07;;;;;;;;;;5075879;28;20051;-56
2022/06/07 07:25:10;;;;;;;10.40;3.58;;;;;;;;;;5058273;28;20044;-56
2022/06/07 07:27:36;;;;;;;11.35;4.00;;;;;;;;;;5073995;28;20040;-56
2022/06/07 07:30:03;;;;;;;10.82;4.00;;;;;;;;;;5076374;28;20040;-56
2022/06/07 07:32:29;;;;;;;17.02;4.20;;;;;;;;;;5058564;28;20116;-56
2022/06/07 07:34:55;;;;;;;11.38;3.47;;;;;;;;;;5076450;28;20504;-56
2022/06/07 07:37:21;;;;;;;7.55;3.17;;;;;;;;;;5075820;28;20366;-56
2022/06/07 07:39:48;;;;;;;9.35;3.90;;;;;;;;;;5074463;28;20064;-57
2022/06/07 07:42:15;;;;;;;11.32;4.55;;;;;;;;;;5070982;28;20050;-56
2022/06/07 07:44:41;;;;;;;9.45;3.05;;;;;;;;;;5057948;28;20046;-56
2022/06/07 07:47:07;;;;;;;14.63;3.35;;;;;;;;;;5049849;28;20432;-57
2022/06/07 07:49:33;;;;;;;8.35;3.00;;;;;;;;;;5075261;28;20044;-56
2022/06/07 07:51:59;;;;;;;11.18;2.75;;;;;;;;;;5075411;28;20082;-57
2022/06/07 07:54:25;;;;;;;11.48;2.65;;;;;;;;;;5075521;28;20098;-57
2022/06/07 07:56:52;;;;;;;9.88;4.15;;;;;;;;;;5075328;28;20037;-57
2022/06/07 07:59:19;;;;;;;11.23;3.42;;;;;;;;;;5057444;28;20171;-57
2022/06/07 08:01:45;;;;;;;18.55;4.40;;;;;;;;;;5073734;28;20474;-58
2022/06/07 08:04:12;;;;;;;13.15;4.50;;;;;;;;;;5056039;28;20074;-57
2022/06/07 08:06:38;;;;;;;15.68;6.30;;;;;;;;;;5075140;28;20129;-57
2022/06/07 08:09:05;;;;;;;8.07;3.55;;;;;;;;;;5075311;28;20047;-56
2022/06/07 08:11:34;;;;;;;12.75;3.60;;;;;;;;;;5057253;28;20097;-57
2022/06/07 08:14:00;;;;;;;10.38;4.65;;;;;;;;;;5057056;28;20036;-56
2022/06/07 08:16:26;;;;;;;11.75;4.72;;;;;;;;;;5056470;28;20388;-59
2022/06/07 08:18:52;;;;;;;13.65;5.78;;;;;;;;;;5042676;28;20152;-57
2022/06/07 08:21:25;;;;;;;16.77;5.40;;;;;;;;;;5056552;28;20052;-57
2022/06/07 08:23:51;;;;;;;13.02;4.32;;;;;;;;;;5074317;28;20040;-56
2022/06/07 08:26:17;;;;;;;11.43;4.13;;;;;;;;;;5075111;28;20048;-56
2022/06/07 08:28:44;;;;;;;14.65;4.07;;;;;;;;;;5057114;28;20484;-57
2022/06/07 08:31:15;;;;;;;8.32;4.90;;;;;;;;;;5052463;28;20075;-56
2022/06/07 08:39:12;;;;;;;12.60;2.58;;;;;;;;;;5072913;28;20051;-57
2022/06/07 08:41:44;;;;;;;10.68;2.40;;;;;;;;;;5072744;28;20040;-57
2022/06/07 08:44:20;;;;;;;13.35;2.17;;;;;;;;;;5055847;28;20494;-57
2022/06/07 08:46:46;;;;;;;7.85;2.28;;;;;;;;;;5073787;28;20076;-57
2022/06/07 08:49:13;;;;;;;7.20;2.05;;;;;;;;;;5057661;28;20076;-56
2022/06/07 08:51:45;;;;;;;9.02;2.15;;;;;;;;;;5068476;28;20124;-57
2022/06/07 08:54:18;;;;;;;12.07;3.33;;;;;;;;;;5074654;28;20499;-56
2022/06/07 08:56:44;;;;;;;11.90;1.70;;;;;;;;;;5072520;28;20036;-56
2022/06/07 08:59:14;;;;;;;8.95;1.83;;;;;;;;;;5051625;28;20048;-56
2022/06/07 09:01:54;;;;;;;8.70;2.42;;;;;;;;;;5060881;28;20180;-56
2022/06/07 09:04:26;;;;;;;9.43;1.73;;;;;;;;;;5038685;28;20086;-57
2022/06/07 09:06:56;;;;;;;4.32;1.33;;;;;;;;;;5072795;28;20068;-58
2022/06/07 09:12:09;;;;;;;9.82;1.95;;;;;;;;;;5071301;28;20041;-58
2022/06/07 09:12:16;;;;;;;10.68;2.13;;;;;;;;;;5052937;28;20078;-58
2022/06/07 09:15:03;;;;;;;7.40;1.42;;;;;;;;;;5074215;28;20047;-58
2022/06/07 09:17:29;;;;;;;3.80;1.33;;;;;;;;;;5069279;28;20415;-58
2022/06/07 09:19:55;;;;;;;5.25;1.20;;;;;;;;;;5062902;28;20376;-57
2022/06/07 09:22:25;;;;;;;4.35;1.20;;;;;;;;;;5060769;28;20036;-57
2022/06/07 09:25:04;;;;;;;3.50;1.10;;;;;;;;;;5073522;28;20041;-58
2022/06/07 09:27:32;;;;;;;3.70;1.20;;;;;;;;;;5067315;28;20032;-58
2022/06/07 09:30:02;;;;;;;4.38;1.30;;;;;;;;;;5071589;28;20049;-58
2022/06/07 09:32:32;;;;;;;5.32;1.58;;;;;;;;;;5070858;28;20048;-58
2022/06/07 09:35:02;;;;;;;8.93;1.70;;;;;;;;;;5065837;28;20071;-58
2022/06/07 09:37:30;;;;;;;6.22;1.23;;;;;;;;;;5082223;22;20069;-59
2022/06/07 09:40:00;;;;;;;4.95;1.55;;;;;;;;;;5054672;28;20060;-58
2022/06/07 09:42:27;;;;;;;;;;;12.90;99.90;;;;;;5036338;28;20048;-58
2022/06/07 09:45:02;;;;;;;4.68;1.50;;;;;;;;;;5069554;28;19981;-58
2022/06/07 09:47:29;;;;;;;5.85;1.67;;;;;;;;;;5032097;28;20053;-58
2022/06/07 09:50:04;;;;;;;5.95;1.55;;;;;;;;;;5050494;28;20041;-59
2022/06/07 09:52:36;;;;;;;10.40;1.98;;;;;;;;;;5047167;28;20049;-58
2022/06/07 09:55:11;;;;;;;5.85;1.50;;;;;;;;;;5045940;28;20048;-58
2022/06/07 09:57:54;;;;;;;5.80;1.67;;;;;;;;;;5040177;28;20037;-58
2022/06/07 10:00:22;;;;;;;9.57;1.80;;;;;;;;;;5042288;28;20041;-59
2022/06/07 10:02:48;;;;;;;9.70;1.52;;;;;;;;;;5035233;28;20327;-56
2022/06/07 10:05:23;;;;;;;6.35;1.27;;;;;;;;;;5052852;28;20045;-58
2022/06/07 10:08:02;;;;;;;7.32;1.52;;;;;;;;;;5037489;28;20049;-58
2022/06/07 10:10:28;;;;;;;5.30;1.42;;;;;;;;;;5053014;28;20052;-58
2022/06/07 10:13:06;;;;;;;6.03;1.63;;;;;;;;;;5052725;28;20397;-58
2022/06/07 10:15:35;;;;;;;5.85;1.40;;;;;;;;;;5052433;28;20037;-57
2022/06/07 10:18:21;;;;;;;12.77;2.20;;;14.00;99.90;;;;;;5073069;22;20526;-57
2022/06/07 10:20:48;;;;;;;5.72;1.40;;;;;;;;;;5031663;28;20409;-57
2022/06/07 10:23:14;;;;;;;6.82;1.42;;;;;;;;;;5051864;28;20049;-57
2022/06/07 10:25:53;;;;;;;8.38;1.83;;;;;;;;;;5052732;28;20489;-58
2022/06/07 10:28:27;;;;;;;10.23;2.08;;;;;;;;;;5051063;28;20048;-58
2022/06/07 10:31:03;;;;;;;4.85;1.52;;;;;;;;;;5052160;28;20045;-58
2022/06/07 10:33:39;;;;;;;12.95;1.80;;;;;;;;;;5043056;28;20076;-57
2022/06/07 10:36:29;;;;;;;5.53;1.63;;;14.60;99.90;;;;;;5085767;22;20041;-58
2022/06/07 10:39:02;;;;;;;6.43;2.45;;;;;;;;;;5050878;28;20057;-58
2022/06/07 10:41:37;;;;;;;5.93;1.58;;;;;;;;;;5045401;28;20049;-58
2022/06/07 10:44:07;;;;;;;4.45;1.13;;;;;;;;;;5039190;28;20477;-58
2022/06/07 10:46:35;;;;;;;3.92;1.17;;;;;;;;;;5050555;28;20049;-58
2022/06/07 10:49:02;;;;;;;3.67;1.20;;;;;;;;;;5052642;28;20136;-57
2022/06/07 10:54:20;;;;;;;5.05;1.05;;;;;;;;;;5046306;28;20060;-57
2022/06/07 10:56:50;;;;;;;7.10;1.70;;;;;;;;;;5044862;28;20106;-57
2022/06/07 10:59:21;;;;;;;5.03;1.60;;;;;;;;;;5033039;28;20486;-58
2022/06/07 11:01:50;;;;;;;6.90;1.90;;;;;;;;;;5052255;28;20049;-57
2022/06/07 11:10:15;;;;;;;6.75;1.00;;;;;;;;;;5050353;28;20049;-57
2022/06/07 11:13:07;;;;;;;6.60;1.52;;;13.70;99.90;;;;;;5034866;28;20045;-57
2022/06/07 11:15:33;;;;;;;4.57;1.42;;;;;;;;;;5034333;28;20056;-57
2022/06/07 11:18:03;;;;;;;5.63;1.70;;;;;;;;;;5072200;28;20045;-57
2022/06/07 11:20:31;;;;;;;9.38;2.00;;;;;;;;;;5072072;28;20481;-58
2022/06/07 11:23:07;;;;;;;3.92;1.45;;;;;;;;;;5054558;28;20060;-57
2022/06/07 11:25:34;;;;;;;4.22;1.75;;;;;;;;;;5041340;28;20048;-57
2022/06/07 11:28:06;;;;;;;10.65;2.20;;;;;;;;;;5039554;28;20056;-57
2022/06/07 11:30:37;;;;;;;4.88;1.60;;;;;;;;;;5041040;28;20571;-57
2022/06/07 11:33:06;;;;;;;4.97;1.73;;;;;;;;;;5044591;28;20064;-59
2022/06/07 11:35:43;;;;;;;7.47;2.08;;;;;;;;;;5032128;28;20064;-58
2022/06/07 11:38:13;;;;;;;8.15;2.33;;;;;;;;;;5015286;28;20065;-58
2022/06/07 11:40:39;;;;;;;6.25;2.03;;;;;;;;;;5040630;28;20056;-58
2022/06/07 11:43:25;;;;;;;8.02;2.53;;;;;;;;;;5028714;28;20050;-57
2022/06/07 11:45:53;;;;;;;6.45;1.80;;;;;;;;;;5041742;28;20037;-58
2022/06/07 11:48:23;;;;;;;7.40;2.20;;;;;;;;;;5031868;28;20512;-58
2022/06/07 11:50:55;;;;;;;;;;;14.10;99.90;;;;;;5050911;28;20048;-57
2022/06/07 11:53:23;;;;;;;6.57;1.65;;;;;;;;;;5050911;28;20003;-58
2022/06/07 11:55:53;;;;;;;8.57;2.05;;;;;;;;;;5051987;28;20397;-58
2022/06/07 11:58:39;;;;;;;8.57;2.60;;;;;;;;;;5020055;28;20041;-58
2022/06/07 12:01:22;;;;;;;10.93;3.17;;;;;;;;;;5021292;28;20136;-58
2022/06/07 12:04:06;;;;;;;6.15;2.20;;;;;;;;;;5052912;28;20041;-58
2022/06/07 12:06:33;;;;;;;8.32;2.10;;;;;;;;;;5055551;28;20081;-58
2022/06/07 12:09:01;;;;;;;10.23;2.50;;;;;;;;;;5063131;28;20507;-58
2022/06/07 12:11:28;;;;;;;7.40;2.25;;;;;;;;;;5036152;28;20567;-57
2022/06/07 12:13:57;;;;;;;8.48;2.00;;;;;;;;;;5049396;28;20049;-57
2022/06/07 12:16:37;;;;;;;11.07;2.78;;;;;;;;;;5052072;28;20041;-58
2022/06/07 12:19:05;;;;;;;5.80;2.10;;;;;;;;;;5035456;28;20449;-58
2022/06/07 12:21:41;;;;;;;6.72;1.70;;;;;;;;;;5054915;28;20041;-58
2022/06/07 12:24:17;;;;;;;7.72;2.13;;;;;;;;;;5043985;28;20037;-57
2022/06/07 12:26:47;;;;;;;7.68;2.40;;;;;;;;;;5035109;28;20041;-58
2022/06/07 12:29:19;;;;;;;8.07;2.13;;;;;;;;;;5044609;28;20052;-57
2022/06/07 12:31:47;;;;;;;9.30;2.58;;;;;;;;;;5053863;28;20409;-58
2022/06/07 12:34:16;;;;;;;7.85;2.10;;;;;;;;;;5051933;28;20409;-58
2022/06/07 12:36:44;;;;;;;7.63;2.17;;;;;;;;;;5036752;28;20056;-57
2022/06/07 12:39:13;;;;;;;6.90;2.58;;;;;;;;;;5019400;28;20061;-57
2022/06/07 12:41:45;;;;;;;9.63;2.55;;;;;;;;;;5016988;28;20045;-57
2022/06/07 12:44:23;;;;;;;7.35;2.50;;;;;;;;;;5044065;28;20092;-57
2022/06/07 12:46:49;;;;;;;10.50;2.05;;;;;;;;;;5053330;28;20056;-58
2022/06/07 12:49:20;;;;;;;13.77;3.17;;;;;;;;;;5035584;28;20512;-58
2022/06/07 12:51:57;;;;;;;9.57;2.40;;;;;;;;;;5042097;28;20096;-58
2022/06/07 12:54:23;;;;;;;13.70;2.80;;;;;;;;;;5043868;28;20550;-59
2022/06/07 12:56:54;;;;;;;10.90;4.22;;;;;;;;;;5054156;28;20489;-58
2022/06/07 12:59:29;;;;;;;11.90;3.15;;;;;;;;;;5041717;28;20106;-57
2022/06/07 13:01:55;;;;;;;12.40;3.28;;;;;;;;;;5053323;28;20044;-58
2022/06/07 13:04:37;;;;;;;6.55;2.42;;;;;;;;;;5057099;28;20047;-57
2022/06/07 13:07:04;;;;;;;6.97;3.10;;;;;;;;;;5038556;28;20060;-60
2022/06/07 13:09:31;;;;;;;9.20;3.20;;;;;;;;;;5038872;28;20496;-58
2022/06/07 13:11:57;;;;;;;7.07;3.40;;;;;;;;;;5043180;28;20485;-57
2022/06/07 13:14:25;;;;;;;8.30;2.72;;;;;;;;;;5045318;28;20049;-58
2022/06/07 13:16:52;;;;;;;11.93;3.63;;;;;;;;;;5039116;28;20045;-57
2022/06/07 13:19:27;;;;;;;8.80;3.15;;;;;;;;;;5036598;28;20049;-58
2022/06/07 13:22:10;;;;;;;6.65;2.83;;;;;;;;;;5027606;28;20060;-58
2022/06/07 13:24:41;;;;;;;9.60;3.80;;;;;;;;;;5026913;28;20119;-58
2022/06/07 13:27:26;;;;;;;10.02;3.58;;;;;;;;;;5021157;28;20505;-58
2022/06/07 13:29:53;;;;;;;9.40;3.53;;;;;;;;;;5036755;28;20056;-58
2022/06/07 13:32:29;;;;;;;10.02;3.83;;;;;;;;;;5041158;28;20045;-57
2022/06/07 13:34:57;;;;;;;9.45;4.07;;;;;;;;;;5038564;28;20068;-57
2022/06/07 13:37:27;;;;;;;14.35;3.92;;;;;;;;;;5052995;28;20056;-58
2022/06/07 13:39:53;;;;;;;;;;;;;;;;;;5053444;28;20072;-58
2022/06/07 13:42:24;;;;;;;10.63;4.35;;;;;;;;;;5052119;28;19965;-57
2022/06/07 13:45:13;;;;;;;15.43;3.88;;;;;;;;;;5052971;28;20037;-58
2022/06/07 13:47:40;;;;;;;9.63;3.92;;;;;;;;;;5041092;28;20052;-59
2022/06/07 13:53:21;;;;;;;13.68;4.38;;;;;;;;;;5034833;28;20496;-57
2022/06/07 13:55:51;;;;;;;11.13;3.90;;;;;;;;;;5052793;28;20063;-58
2022/06/07 13:58:22;;;;;;;18.55;5.60;;;;;;;;;;5052483;28;20048;-57
2022/06/07 14:00:48;;;;;;;9.10;3.90;;;;;;;;;;5051810;28;20052;-57
2022/06/07 14:03:33;;;;;;;14.10;4.03;;;;;;;;;;5051793;28;20041;-58
2022/06/07 14:06:01;;;;;;;11.15;4.10;;;;;;;;;;5048856;28;20049;-57
2022/06/07 14:08:27;;;;;;;14.15;4.85;;;;;;;;;;5050537;28;20489;-57
2022/06/07 14:10:53;;;;;;;13.07;4.68;;;;;;;;;;5034046;28;20473;-58
2022/06/07 14:13:19;;;;;;;13.50;4.50;;;;;;;;;;5052437;28;20076;-58
2022/06/07 14:15:47;;;;;;;8.32;4.45;;;;;;;;;;5044296;28;20452;-58
2022/06/07 14:18:14;;;;;;;15.20;4.25;;;;;;;;;;5044642;28;20497;-57
2022/06/07 14:20:40;;;;;;;16.08;5.85;;;;;;;;;;5075483;22;20397;-57
2022/06/07 14:23:10;;;;;;;12.27;5.15;;;;;;;;;;5067310;22;20049;-57
2022/06/07 14:25:36;;;;;;;11.65;4.05;;;;;;;;;;5035294;28;20053;-57
2022/06/07 14:28:02;;;;;;;10.73;4.35;;;;;;;;;;5052657;28;20049;-58
2022/06/07 14:30:28;;;;;;;17.40;5.18;;;;;;;;;;5051971;28;20464;-57
2022/06/07 14:32:57;;;;;;;18.67;6.13;;;;;;;;;;5035005;28;20045;-57
2022/06/07 14:35:25;;;;;;;14.23;6.05;;;;;;;;;;5045209;28;20049;-57
2022/06/07 14:38:22;;;;;;;13.85;4.93;;;15.00;99.90;;;;;;5054405;22;20530;-57
2022/06/07 14:40:48;;;;;;;16.40;6.85;;;;;;;;;;5069866;22;20489;-57
2022/06/07 14:43:16;;;;;;;13.15;5.05;;;;;;;;;;5086003;22;20401;-57
2022/06/07 14:45:43;;;;;;;14.02;5.45;;;;;;;;;;5071287;28;20087;-57
2022/06/07 14:48:14;;;;;;;14.35;5.20;;;;;;;;;;5070374;28;20106;-57
2022/06/07 14:50:40;;;;;;;12.48;4.18;;;;;;;;;;5064899;28;20040;-58
2022/06/07 14:53:11;;;;;;;11.05;4.50;;;;;;;;;;5061105;28;20037;-58
2022/06/07 14:55:37;;;;;;;;;;;;;;;;;;5067030;28;20055;-57
2022/06/07 14:58:03;;;;;;;10.40;4.93;;;;;;;;;;5067141;28;19920;-56
2022/06/07 15:00:29;;;;;;;7.40;4.28;;;;;;;;;;5068821;28;20128;-57
2022/06/07 15:02:59;;;;;;;8.55;4.22;;;;;;;;;;5061583;28;20041;-56
2022/06/07 15:05:28;;;;;;;11.88;4.97;;;;;;;;;;5068790;28;20049;-56
2022/06/07 15:08:02;;;;;;;9.02;4.75;;;;;;;;;;5067016;28;20056;-58